Thackerville, Oklahoma
Current Conditions -  °F | °C
As of 2:35 PM on Thursday 20 Nov 2014 (Local Time) from KGLE Reporting Station
Clear Clear  
Wind Chill: 68°   Ceiling: Unl
Heat Index: 68°   Visibility: 10mi
Dew Point: 43°   Wind: 15mph
Humidity: 40%   Direction: 170°S
Pressure: 30"   Gusts: 18mph
Location:  33.79°N, 97.14°W
Report Text: KGLE 202035Z AUTO 17013G16KT 10SM CLR 20/06 A3000 RMK AO2 T02020063
Loading
Personal Weather Stations






























Interactive Weather Map New forecast layout! Learn more

10-Day Weather Forecast

Advertisements
Track Severe Weather on mobile